createdAt,value
2023-03-08T00:01:24.429Z,16.25
2023-03-08T00:03:55.967Z,17.00
2023-03-08T00:06:24.664Z,18.25
2023-03-08T00:08:56.006Z,17.00
2023-03-08T00:11:22.968Z,16.25
2023-03-08T00:13:49.854Z,20.00
2023-03-08T00:16:17.182Z,16.00
2023-03-08T00:18:44.160Z,20.00
2023-03-08T00:21:14.906Z,18.00
2023-03-08T00:23:42.843Z,19.25
2023-03-08T00:26:10.649Z,16.75
2023-03-08T00:28:37.764Z,16.00
2023-03-08T00:31:07.766Z,18.00
2023-03-08T00:33:35.668Z,16.75
2023-03-08T00:36:08.911Z,19.00
2023-03-08T00:38:37.217Z,22.00
2023-03-08T00:41:04.534Z,19.00
2023-03-08T00:43:31.817Z,15.25
2023-03-08T00:45:58.900Z,15.00
2023-03-08T00:48:26.390Z,16.50
2023-03-08T00:50:53.399Z,16.75
2023-03-08T00:53:20.914Z,18.25
2023-03-08T00:55:59.033Z,13.25
2023-03-08T00:58:27.669Z,16.00
2023-03-08T01:00:55.115Z,20.00
2023-03-08T01:03:22.526Z,15.75
2023-03-08T01:05:52.074Z,15.00
2023-03-08T01:08:19.471Z,12.00
2023-03-08T01:10:59.960Z,14.00
2023-03-08T01:13:29.644Z,16.00
2023-03-08T01:15:57.054Z,16.00
2023-03-08T01:18:24.725Z,15.50
2023-03-08T01:21:03.222Z,16.50
2023-03-08T01:23:30.734Z,15.75
2023-03-08T01:26:05.053Z,16.25
2023-03-08T01:28:33.267Z,15.00
2023-03-08T01:31:06.657Z,14.75
2023-03-08T01:33:33.770Z,17.00
2023-03-08T01:36:04.022Z,18.25
2023-03-08T01:38:30.970Z,18.25
2023-03-08T01:41:02.862Z,11.00
2023-03-08T01:43:33.603Z,18.50
2023-03-08T01:46:24.039Z,18.00
2023-03-08T01:49:05.407Z,16.50
2023-03-08T01:52:04.418Z,16.75
2023-03-08T01:54:57.695Z,15.00
2023-03-08T01:57:31.280Z,15.25
2023-03-08T02:00:13.309Z,16.25
2023-03-08T02:02:58.464Z,13.25
2023-03-08T02:05:26.989Z,17.00
2023-03-08T02:08:12.259Z,15.50
2023-03-08T02:11:05.691Z,15.25
2023-03-08T02:13:50.791Z,15.00
2023-03-08T02:16:35.811Z,13.75
2023-03-08T02:19:36.985Z,15.50
2023-03-08T02:22:41.344Z,15.25
2023-03-08T02:25:37.279Z,17.25
2023-03-08T02:28:05.366Z,18.00
2023-03-08T02:30:35.315Z,18.00
2023-03-08T02:33:02.217Z,15.25
2023-03-08T02:35:29.706Z,13.25
2023-03-08T02:37:56.578Z,15.00
2023-03-08T02:40:23.460Z,11.75
2023-03-08T02:42:52.840Z,12.25
2023-03-08T02:45:20.502Z,14.25
2023-03-08T02:47:47.385Z,7.75
2023-03-08T02:50:14.316Z,15.50
2023-03-08T02:52:41.217Z,16.50
2023-03-08T02:55:08.666Z,15.00
2023-03-08T02:57:35.612Z,18.25
2023-03-08T03:00:02.744Z,20.75
2023-03-08T03:02:29.679Z,17.50
2023-03-08T03:04:56.589Z,16.00
2023-03-08T03:07:23.478Z,15.25
2023-03-08T03:09:50.635Z,15.00
2023-03-08T03:12:17.505Z,13.75
2023-03-08T03:14:44.475Z,14.75
2023-03-08T03:17:11.328Z,18.50
2023-03-08T03:19:38.651Z,17.25
2023-03-08T03:22:05.628Z,16.00
2023-03-08T03:24:32.521Z,18.00
2023-03-08T03:26:59.537Z,16.00
2023-03-08T03:29:26.455Z,17.00
2023-03-08T03:31:53.402Z,15.50
2023-03-08T03:34:20.297Z,16.00
2023-03-08T03:36:47.192Z,14.75
2023-03-08T03:39:14.095Z,16.50
2023-03-08T03:41:41.090Z,16.00
2023-03-08T03:44:08.020Z,17.75
2023-03-08T03:46:35.001Z,16.00
2023-03-08T03:49:01.977Z,15.00
2023-03-08T03:51:28.973Z,13.25
2023-03-08T03:53:56.234Z,14.75
2023-03-08T03:56:25.301Z,16.75
2023-03-08T03:58:52.980Z,13.00
2023-03-08T04:01:24.936Z,16.00
2023-03-08T04:03:53.369Z,15.00
2023-03-08T04:06:32.220Z,19.50
2023-03-08T04:09:02.760Z,10.00
2023-03-08T04:11:34.752Z,16.00
2023-03-08T04:14:01.979Z,16.00
2023-03-08T04:16:31.529Z,16.00
2023-03-08T04:19:01.431Z,15.25
2023-03-08T04:21:28.843Z,10.00
2023-03-08T04:23:56.763Z,13.25
2023-03-08T04:26:25.132Z,12.25
2023-03-08T04:28:52.387Z,14.00
2023-03-08T04:31:25.437Z,14.00
2023-03-08T04:33:53.503Z,12.00
2023-03-08T04:36:21.762Z,12.00
2023-03-08T04:38:49.553Z,11.00
2023-03-08T04:41:17.211Z,12.25
2023-03-08T04:43:52.489Z,15.50
2023-03-08T04:46:22.587Z,11.50
2023-03-08T04:48:53.059Z,14.00
2023-03-08T04:51:21.370Z,16.00
2023-03-08T04:53:48.329Z,15.00
2023-03-08T04:56:17.141Z,5.75
2023-03-08T04:58:44.429Z,12.00
2023-03-08T05:01:16.816Z,12.00
2023-03-08T05:03:44.960Z,11.00
2023-03-08T05:06:14.371Z,13.25
2023-03-08T05:08:41.689Z,12.00
2023-03-08T05:11:09.149Z,13.75
2023-03-08T05:13:38.720Z,11.50
2023-03-08T05:16:08.312Z,15.00
2023-03-08T05:18:35.855Z,14.00
2023-03-08T05:21:14.841Z,16.50
2023-03-08T05:23:42.204Z,15.00
2023-03-08T05:26:11.514Z,14.00
2023-03-08T05:28:39.065Z,11.25
2023-03-08T05:31:15.724Z,15.00
2023-03-08T05:33:44.278Z,15.00
2023-03-08T05:36:11.761Z,12.50
2023-03-08T05:38:38.722Z,14.25
2023-03-08T05:41:08.532Z,13.00
2023-03-08T05:43:36.068Z,10.50
2023-03-08T05:46:08.434Z,9.50
2023-03-08T05:48:56.917Z,10.25
2023-03-08T05:51:23.824Z,12.75
2023-03-08T05:53:50.768Z,11.00
2023-03-08T05:56:23.206Z,9.00
2023-03-08T05:58:51.056Z,9.00
2023-03-08T06:01:22.155Z,6.50
2023-03-08T06:03:52.088Z,8.00
2023-03-08T06:06:20.257Z,7.00
2023-03-08T06:08:48.135Z,6.25
2023-03-08T06:11:15.913Z,9.75
2023-03-08T06:13:42.928Z,10.00
2023-03-08T06:16:10.674Z,10.75
2023-03-08T06:18:39.343Z,14.00
2023-03-08T06:21:09.748Z,11.00
2023-03-08T06:23:37.041Z,14.50
2023-03-08T06:26:05.138Z,8.25
2023-03-08T06:28:32.332Z,11.00
2023-03-08T06:30:59.785Z,14.00
2023-03-08T06:33:29.115Z,12.00
2023-03-08T06:36:06.173Z,14.75
2023-03-08T06:38:35.173Z,14.00
2023-03-08T06:41:02.646Z,14.25
2023-03-08T06:43:30.005Z,8.25
2023-03-08T06:45:57.479Z,11.75
2023-03-08T06:48:24.996Z,14.50
2023-03-08T06:50:51.893Z,13.00
2023-03-08T06:53:18.829Z,15.00
2023-03-08T06:55:45.759Z,12.25
2023-03-08T06:58:12.754Z,12.00
2023-03-08T07:00:39.816Z,11.00
2023-03-08T07:03:06.972Z,17.25
2023-03-08T07:05:34.065Z,12.25
2023-03-08T07:08:01.034Z,12.50
2023-03-08T07:10:27.996Z,14.00
2023-03-08T07:12:54.986Z,11.75
2023-03-08T07:15:24.277Z,11.00
2023-03-08T07:17:55.193Z,11.50
2023-03-08T07:20:23.969Z,12.00
2023-03-08T07:22:51.046Z,12.25
2023-03-08T07:25:20.647Z,7.25
2023-03-08T07:27:47.756Z,10.50
2023-03-08T07:30:16.464Z,12.25
2023-03-08T07:32:43.764Z,12.75
2023-03-08T07:35:13.322Z,11.00
2023-03-08T07:37:41.164Z,11.00
2023-03-08T07:40:09.303Z,11.50
2023-03-08T07:42:36.235Z,12.00
2023-03-08T07:45:04.030Z,10.00
2023-03-08T07:47:30.924Z,12.50
2023-03-08T07:49:57.863Z,14.00
2023-03-08T07:52:31.758Z,13.00
2023-03-08T07:54:58.733Z,13.75
2023-03-08T07:57:25.950Z,14.00
2023-03-08T07:59:54.432Z,11.50
2023-03-08T08:02:21.533Z,17.00
2023-03-08T08:04:48.408Z,18.00
2023-03-08T08:07:16.689Z,14.00
2023-03-08T08:09:44.284Z,12.25
2023-03-08T08:12:11.516Z,12.25
2023-03-08T08:14:38.528Z,15.25
2023-03-08T08:17:05.678Z,16.00
2023-03-08T08:19:32.896Z,13.00
2023-03-08T08:22:00.811Z,14.00
2023-03-08T08:24:28.375Z,17.25
2023-03-08T08:26:55.278Z,18.00
2023-03-08T08:29:22.417Z,18.25
2023-03-08T08:31:49.408Z,18.50
2023-03-08T08:34:16.287Z,16.00
2023-03-08T08:36:43.174Z,20.25
2023-03-08T08:39:10.041Z,19.50
2023-03-08T08:41:37.080Z,20.75
2023-03-08T08:44:04.392Z,17.50
2023-03-08T08:46:34.329Z,16.00
2023-03-08T08:49:02.058Z,14.00
2023-03-08T08:51:28.989Z,13.75
2023-03-08T08:53:56.095Z,18.25
2023-03-08T08:56:28.722Z,19.00
2023-03-08T08:58:57.433Z,24.00
2023-03-08T09:01:26.783Z,24.00
2023-03-08T09:03:54.111Z,24.25
2023-03-08T09:06:23.494Z,23.00
2023-03-08T09:08:55.224Z,24.00
2023-03-08T09:11:23.126Z,22.00
2023-03-08T09:13:50.648Z,22.00
2023-03-08T09:16:24.931Z,20.75
2023-03-08T09:18:52.444Z,22.25
2023-03-08T09:21:19.972Z,21.00
2023-03-08T09:23:46.906Z,21.75
2023-03-08T09:26:13.988Z,21.75
2023-03-08T09:28:40.959Z,26.25
2023-03-08T09:31:13.157Z,23.25
2023-03-08T09:33:45.016Z,25.50
2023-03-08T09:36:12.675Z,25.25
2023-03-08T09:38:39.948Z,24.50
2023-03-08T09:41:29.130Z,25.00
2023-03-08T09:44:45.926Z,25.25
2023-03-08T09:47:48.508Z,23.25
2023-03-08T09:50:25.616Z,21.50
2023-03-08T09:53:02.997Z,27.67
2023-03-08T09:55:33.217Z,26.00
2023-03-08T09:58:05.435Z,22.25
2023-03-08T10:00:36.948Z,18.75
2023-03-08T10:03:12.886Z,26.25
2023-03-08T10:05:51.871Z,21.50
2023-03-08T10:08:27.043Z,23.00
2023-03-08T10:10:56.827Z,24.25
2023-03-08T10:13:38.880Z,24.75
2023-03-08T10:16:32.415Z,22.33
2023-03-08T10:19:21.457Z,26.00
2023-03-08T10:21:49.400Z,24.00
2023-03-08T10:24:34.605Z,25.25
2023-03-08T10:27:15.889Z,24.25
2023-03-08T10:29:49.923Z,26.50
2023-03-08T10:32:17.340Z,25.75
2023-03-08T10:34:44.814Z,23.00
2023-03-08T10:37:12.024Z,24.00
2023-03-08T10:39:53.610Z,23.25
2023-03-08T10:42:24.399Z,19.00
2023-03-08T10:45:00.574Z,21.50
2023-03-08T10:47:31.742Z,18.00
2023-03-08T10:50:21.085Z,18.00
2023-03-08T10:52:51.114Z,22.00
2023-03-08T10:55:21.648Z,18.50
2023-03-08T10:57:57.620Z,22.50
2023-03-08T11:00:36.540Z,23.25
2023-03-08T11:03:21.202Z,18.50
2023-03-08T11:06:01.834Z,20.75
2023-03-08T11:08:35.181Z,15.00
2023-03-08T11:11:03.986Z,12.00
2023-03-08T11:13:34.539Z,12.25
2023-03-08T11:16:20.399Z,12.75
2023-03-08T11:18:52.109Z,12.00
2023-03-08T11:21:34.032Z,12.00
2023-03-08T11:24:11.818Z,14.75
2023-03-08T11:26:59.145Z,12.50
2023-03-08T11:29:51.489Z,10.00
2023-03-08T11:32:40.132Z,9.00
2023-03-08T11:35:39.657Z,9.50
2023-03-08T11:38:18.048Z,14.75
2023-03-08T11:41:39.860Z,11.25
2023-03-08T11:44:12.540Z,11.00
2023-03-08T11:46:45.103Z,8.25
2023-03-08T11:49:20.803Z,7.75
2023-03-08T11:52:10.499Z,8.50
2023-03-08T11:55:20.935Z,7.50
2023-03-08T11:57:54.611Z,9.00
2023-03-08T12:00:34.909Z,7.50
2023-03-08T12:03:11.956Z,8.50
2023-03-08T12:05:44.627Z,7.50
2023-03-08T12:08:24.464Z,6.75
2023-03-08T12:10:57.161Z,8.00
2023-03-08T12:13:33.570Z,9.25
2023-03-08T12:16:11.651Z,8.00
2023-03-08T12:18:49.025Z,8.00
2023-03-08T12:21:40.181Z,9.75
2023-03-08T12:24:37.395Z,12.00
2023-03-08T12:27:10.207Z,14.00
2023-03-08T12:29:48.107Z,13.00
2023-03-08T12:32:17.074Z,13.00
2023-03-08T12:34:46.932Z,12.00
2023-03-08T12:37:25.866Z,10.00
2023-03-08T12:40:08.503Z,10.25
2023-03-08T12:42:41.043Z,8.00
2023-03-08T12:45:07.884Z,6.25
2023-03-08T12:47:34.960Z,8.00
2023-03-08T12:50:15.671Z,8.00
2023-03-08T12:52:43.121Z,7.00
2023-03-08T12:55:21.588Z,7.00
2023-03-08T12:57:50.513Z,7.00
2023-03-08T13:00:20.202Z,4.25
2023-03-08T13:02:47.296Z,7.00
2023-03-08T13:05:33.339Z,7.75
2023-03-08T13:08:06.277Z,8.00
2023-03-08T13:10:39.291Z,9.00
2023-03-08T13:13:42.572Z,7.00
2023-03-08T13:16:15.465Z,7.75
2023-03-08T13:18:45.860Z,6.75
2023-03-08T13:21:12.765Z,7.00
2023-03-08T13:24:23.230Z,9.00
2023-03-08T13:27:02.103Z,8.00
2023-03-08T13:29:32.443Z,8.25
2023-03-08T13:32:06.540Z,8.00
2023-03-08T13:34:35.516Z,7.00
2023-03-08T13:37:02.538Z,7.00
2023-03-08T13:39:31.845Z,8.00
2023-03-08T13:42:11.031Z,7.00
2023-03-08T13:44:38.871Z,9.50
2023-03-08T13:47:21.062Z,8.25
2023-03-08T13:49:51.901Z,7.00
2023-03-08T13:52:27.296Z,8.50
2023-03-08T13:54:57.573Z,9.25
2023-03-08T13:57:29.070Z,10.75
2023-03-08T14:00:00.986Z,5.50
2023-03-08T14:02:32.526Z,8.50
2023-03-08T14:05:00.056Z,9.00
2023-03-08T14:07:32.384Z,9.75
2023-03-08T14:09:59.733Z,7.00
2023-03-08T14:12:33.076Z,8.00
2023-03-08T14:15:06.176Z,9.25
2023-03-08T14:17:36.244Z,9.00
2023-03-08T14:20:20.014Z,9.25
2023-03-08T14:22:49.614Z,8.00
2023-03-08T14:25:31.557Z,3.00
2023-03-08T14:27:59.425Z,4.00
2023-03-08T14:30:29.230Z,7.00
2023-03-08T14:33:14.660Z,7.00
2023-03-08T14:35:45.613Z,8.00
2023-03-08T14:38:23.276Z,5.00
2023-03-08T14:40:51.176Z,4.00
2023-03-08T14:43:24.336Z,4.00
2023-03-08T14:46:01.763Z,2.00
2023-03-08T14:48:34.592Z,2.00
2023-03-08T14:51:05.985Z,1.00
2023-03-08T14:53:35.941Z,2.00
2023-03-08T14:56:07.895Z,2.00
2023-03-08T14:58:39.164Z,2.00
2023-03-08T15:01:06.144Z,4.00
2023-03-08T15:03:34.046Z,13.75
2023-03-08T15:06:23.197Z,7.00
2023-03-08T15:08:50.331Z,8.75
2023-03-08T15:11:17.440Z,10.75
2023-03-08T15:13:46.249Z,8.00
2023-03-08T15:16:14.646Z,8.75
2023-03-08T15:18:42.720Z,10.25
2023-03-08T15:21:15.341Z,9.00
2023-03-08T15:23:43.626Z,8.00
2023-03-08T15:26:22.425Z,7.00
2023-03-08T15:28:49.305Z,5.50
2023-03-08T15:31:16.279Z,6.00
2023-03-08T15:33:43.207Z,6.00
2023-03-08T15:36:18.171Z,7.00
2023-03-08T15:38:45.752Z,5.50
2023-03-08T15:41:16.915Z,6.75
2023-03-08T15:43:44.226Z,12.25
2023-03-08T15:46:13.473Z,8.25
2023-03-08T15:48:40.621Z,7.00
2023-03-08T15:51:17.471Z,5.50
2023-03-08T15:53:44.322Z,10.50
2023-03-08T15:56:11.509Z,6.00
2023-03-08T15:58:38.653Z,5.00
2023-03-08T16:01:06.678Z,8.25
2023-03-08T16:03:35.184Z,6.75
2023-03-08T16:06:03.530Z,6.75
2023-03-08T16:08:30.849Z,5.50
2023-03-08T16:11:04.169Z,6.00
2023-03-08T16:13:31.835Z,8.00
2023-03-08T16:16:04.443Z,4.00
2023-03-08T16:18:32.489Z,7.50
2023-03-08T16:20:59.976Z,14.25
2023-03-08T16:23:26.979Z,10.50
2023-03-08T16:26:15.202Z,7.25
2023-03-08T16:28:44.356Z,9.25
2023-03-08T16:31:11.532Z,8.75
2023-03-08T16:33:38.539Z,10.50
2023-03-08T16:36:05.712Z,7.00
2023-03-08T16:38:32.789Z,8.00
2023-03-08T16:41:12.306Z,8.50
2023-03-08T16:43:46.906Z,7.00
2023-03-08T16:46:21.540Z,8.00
2023-03-08T16:48:50.241Z,9.00
2023-03-08T16:51:19.603Z,9.25
2023-03-08T16:53:46.872Z,6.50
2023-03-08T16:56:25.707Z,6.00
2023-03-08T16:58:54.573Z,6.00
2023-03-08T17:01:22.191Z,4.00
2023-03-08T17:03:49.906Z,8.50
2023-03-08T17:06:18.928Z,6.75
2023-03-08T17:08:46.338Z,11.00
2023-03-08T17:11:20.312Z,8.00
2023-03-08T17:13:51.168Z,9.50
2023-03-08T17:16:20.416Z,8.00
2023-03-08T17:18:48.805Z,8.00
2023-03-08T17:21:16.433Z,9.50
2023-03-08T17:23:43.890Z,9.25
2023-03-08T17:26:13.375Z,12.00
2023-03-08T17:28:41.881Z,12.50
2023-03-08T17:31:15.571Z,8.00
2023-03-08T17:33:43.804Z,5.50
2023-03-08T17:36:11.899Z,6.00
2023-03-08T17:38:39.003Z,7.00
2023-03-08T17:41:08.526Z,4.50
2023-03-08T17:43:35.862Z,6.00
2023-03-08T17:46:08.136Z,7.00
2023-03-08T17:48:35.866Z,5.00
2023-03-08T17:51:11.019Z,5.00
2023-03-08T17:53:38.639Z,7.00
2023-03-08T17:56:07.600Z,7.00
2023-03-08T17:58:35.027Z,7.00
2023-03-08T18:01:17.591Z,6.00
2023-03-08T18:03:45.156Z,7.75
2023-03-08T18:06:21.009Z,6.00
2023-03-08T18:08:47.964Z,4.25
2023-03-08T18:11:14.977Z,8.00
2023-03-08T18:13:42.150Z,4.00
2023-03-08T18:16:09.127Z,3.75
2023-03-08T18:18:36.296Z,4.50
2023-03-08T18:21:13.094Z,3.00
2023-03-08T18:23:43.412Z,2.25
2023-03-08T18:26:12.017Z,2.75
2023-03-08T18:28:39.133Z,1.50
2023-03-08T18:31:14.980Z,4.00
2023-03-08T18:33:42.246Z,5.00
2023-03-08T18:36:09.422Z,5.00
2023-03-08T18:38:36.477Z,4.00
2023-03-08T18:41:22.568Z,3.50
2023-03-08T18:43:51.356Z,5.00
2023-03-08T18:46:19.536Z,4.50
2023-03-08T18:48:52.199Z,6.00
2023-03-08T18:51:19.147Z,5.00
2023-03-08T18:53:46.229Z,5.00
2023-03-08T18:56:13.336Z,4.00
2023-03-08T18:58:40.403Z,6.00
2023-03-08T19:01:14.801Z,5.00
2023-03-08T19:03:43.590Z,4.00
2023-03-08T19:06:11.345Z,4.00
2023-03-08T19:08:39.189Z,3.00
2023-03-08T19:11:12.628Z,4.00
2023-03-08T19:13:40.821Z,6.00
2023-03-08T19:16:19.450Z,6.75
2023-03-08T19:18:46.996Z,10.50
2023-03-08T19:21:21.058Z,6.50
2023-03-08T19:23:48.590Z,8.50
2023-03-08T19:26:37.062Z,8.75
2023-03-08T19:29:04.570Z,13.00
2023-03-08T19:31:32.308Z,6.00
2023-03-08T19:34:05.295Z,7.50
2023-03-08T19:36:33.900Z,10.00
2023-03-08T19:39:01.455Z,11.75
2023-03-08T19:41:28.547Z,7.25
2023-03-08T19:43:55.670Z,8.75
2023-03-08T19:46:23.904Z,10.25
2023-03-08T19:48:51.385Z,8.00
2023-03-08T19:51:20.208Z,11.00
2023-03-08T19:53:47.160Z,10.00
2023-03-08T19:56:17.886Z,9.00
2023-03-08T19:58:47.106Z,4.50
2023-03-08T20:01:17.129Z,9.25
2023-03-08T20:03:46.380Z,24.00
2023-03-08T20:06:21.600Z,17.50
2023-03-08T20:08:49.535Z,18.50
2023-03-08T20:11:16.865Z,13.00
2023-03-08T20:13:43.908Z,12.25
2023-03-08T20:16:11.484Z,8.75
2023-03-08T20:18:38.521Z,9.00
2023-03-08T20:21:06.058Z,6.00
2023-03-08T20:23:33.045Z,7.75
2023-03-08T20:26:00.471Z,7.00
2023-03-08T20:28:27.790Z,4.25
2023-03-08T20:30:55.529Z,6.00
2023-03-08T20:33:23.375Z,6.25
2023-03-08T20:35:58.319Z,2.00
2023-03-08T20:38:26.227Z,4.25
2023-03-08T20:41:16.110Z,3.75
2023-03-08T20:43:44.402Z,4.50
2023-03-08T20:46:14.929Z,6.00
2023-03-08T20:48:43.761Z,7.00
2023-03-08T20:51:19.157Z,6.00
2023-03-08T20:53:49.202Z,8.00
2023-03-08T20:56:18.319Z,9.25
2023-03-08T20:58:45.947Z,9.75
2023-03-08T21:01:16.497Z,8.00
2023-03-08T21:03:44.490Z,4.25
2023-03-08T21:06:20.373Z,7.50
2023-03-08T21:08:48.653Z,6.25
2023-03-08T21:11:16.981Z,7.00
2023-03-08T21:13:46.346Z,8.00
2023-03-08T21:16:16.496Z,9.25
2023-03-08T21:18:46.134Z,10.25
2023-03-08T21:21:27.432Z,16.00
2023-03-08T21:23:59.965Z,12.50
2023-03-08T21:26:28.545Z,11.25
2023-03-08T21:28:58.110Z,11.00
2023-03-08T21:31:27.282Z,10.00
2023-03-08T21:33:54.617Z,10.25
2023-03-08T21:36:21.957Z,11.00
2023-03-08T21:38:54.061Z,13.50
2023-03-08T21:41:33.646Z,11.00
2023-03-08T21:44:07.730Z,13.00
2023-03-08T21:46:37.081Z,12.50
2023-03-08T21:49:05.103Z,13.50
2023-03-08T21:51:33.078Z,10.00
2023-03-08T21:54:00.715Z,6.50
2023-03-08T21:56:27.680Z,10.75
2023-03-08T21:58:55.715Z,8.00
2023-03-08T22:01:30.450Z,9.50
2023-03-08T22:03:58.393Z,9.00
2023-03-08T22:06:26.222Z,7.00
2023-03-08T22:08:53.903Z,7.75
2023-03-08T22:11:23.053Z,6.50
2023-03-08T22:13:57.434Z,7.00
2023-03-08T22:16:25.494Z,6.50
2023-03-08T22:19:01.930Z,7.25
2023-03-08T22:21:29.321Z,6.75
2023-03-08T22:23:58.414Z,9.00
2023-03-08T22:26:27.010Z,6.00
2023-03-08T22:28:55.824Z,7.00
2023-03-08T22:31:26.114Z,6.25
2023-03-08T22:33:53.629Z,7.00
2023-03-08T22:36:21.447Z,8.00
2023-03-08T22:38:48.502Z,4.25
2023-03-08T22:41:21.300Z,6.00
2023-03-08T22:43:49.570Z,2.50
2023-03-08T22:46:20.074Z,6.00
2023-03-08T22:48:48.235Z,6.00
2023-03-08T22:51:16.906Z,4.50
2023-03-08T22:53:44.289Z,7.25
2023-03-08T22:56:30.954Z,4.25
2023-03-08T22:58:58.801Z,3.50
2023-03-08T23:01:27.486Z,7.00
2023-03-08T23:03:57.293Z,7.00
2023-03-08T23:06:28.422Z,5.50
2023-03-08T23:09:06.514Z,7.00
2023-03-08T23:11:34.650Z,5.75
2023-03-08T23:14:02.857Z,3.00
2023-03-08T23:16:30.220Z,4.00
2023-03-08T23:18:57.321Z,6.00
2023-03-08T23:21:27.170Z,4.00
2023-03-08T23:27:34.717Z,9.75
2023-03-08T23:30:01.744Z,6.25
2023-03-08T23:32:28.814Z,8.00
2023-03-08T23:34:55.834Z,7.00
2023-03-08T23:37:22.862Z,7.50
2023-03-08T23:39:49.881Z,10.00
2023-03-08T23:42:16.833Z,10.50
2023-03-08T23:44:43.955Z,7.50
2023-03-08T23:47:10.879Z,12.50
2023-03-08T23:49:37.745Z,10.25
2023-03-08T23:52:04.674Z,13.00
2023-03-08T23:54:31.588Z,15.25
2023-03-08T23:56:58.565Z,15.50
2023-03-08T23:59:25.610Z,16.00
